sensor_id;sensor_type;location;lat;lon;timestamp;P1;durP1;ratioP1;P2;durP2;ratioP2
72813;SDS011;60945;48.516;-2.768;2022-07-17T00:00:45;8.48;;;3.42;;
72813;SDS011;60945;48.516;-2.768;2022-07-17T00:03:11;12.43;;;3.92;;
72813;SDS011;60945;48.516;-2.768;2022-07-17T00:05:38;10.32;;;3.30;;
72813;SDS011;60945;48.516;-2.768;2022-07-17T00:08:07;7.55;;;3.33;;
72813;SDS011;60945;48.516;-2.768;2022-07-17T00:10:34;19.08;;;4.35;;
72813;SDS011;60945;48.516;-2.768;2022-07-17T00:13:01;6.80;;;3.35;;
72813;SDS011;60945;48.516;-2.768;2022-07-17T00:15:27;7.07;;;3.42;;
72813;SDS011;60945;48.516;-2.768;2022-07-17T00:17:53;7.97;;;3.42;;
72813;SDS011;60945;48.516;-2.768;2022-07-17T00:20:19;7.97;;;3.70;;
72813;SDS011;60945;48.516;-2.768;2022-07-17T00:22:44;5.97;;;3.22;;
72813;SDS011;60945;48.516;-2.768;2022-07-17T00:25:11;13.00;;;4.45;;
72813;SDS011;60945;48.516;-2.768;2022-07-17T00:27:38;10.18;;;3.30;;
72813;SDS011;60945;48.516;-2.768;2022-07-17T00:30:05;7.53;;;3.90;;
72813;SDS011;60945;48.516;-2.768;2022-07-17T00:32:32;6.70;;;3.50;;
72813;SDS011;60945;48.516;-2.768;2022-07-17T00:34:58;10.25;;;3.85;;
72813;SDS011;60945;48.516;-2.768;2022-07-17T00:37:24;6.93;;;3.33;;
72813;SDS011;60945;48.516;-2.768;2022-07-17T00:39:49;9.40;;;3.17;;
72813;SDS011;60945;48.516;-2.768;2022-07-17T00:42:15;9.00;;;3.80;;
72813;SDS011;60945;48.516;-2.768;2022-07-17T00:44:42;10.80;;;3.45;;
72813;SDS011;60945;48.516;-2.768;2022-07-17T00:47:16;6.45;;;4.35;;
72813;SDS011;60945;48.516;-2.768;2022-07-17T00:49:43;7.82;;;3.70;;
72813;SDS011;60945;48.516;-2.768;2022-07-17T00:52:13;9.63;;;3.75;;
72813;SDS011;60945;48.516;-2.768;2022-07-17T00:54:40;9.95;;;3.80;;
72813;SDS011;60945;48.516;-2.768;2022-07-17T00:57:09;9.68;;;3.35;;
72813;SDS011;60945;48.516;-2.768;2022-07-17T00:59:37;9.13;;;3.75;;
72813;SDS011;60945;48.516;-2.768;2022-07-17T01:02:08;7.22;;;3.97;;
72813;SDS011;60945;48.516;-2.768;2022-07-17T01:04:37;8.43;;;4.03;;
72813;SDS011;60945;48.516;-2.768;2022-07-17T01:07:03;5.57;;;3.88;;
72813;SDS011;60945;48.516;-2.768;2022-07-17T01:09:31;5.25;;;3.55;;
72813;SDS011;60945;48.516;-2.768;2022-07-17T01:11:57;5.53;;;3.47;;
72813;SDS011;60945;48.516;-2.768;2022-07-17T01:14:23;7.88;;;3.60;;
72813;SDS011;60945;48.516;-2.768;2022-07-17T01:16:53;6.78;;;3.92;;
72813;SDS011;60945;48.516;-2.768;2022-07-17T01:19:19;6.85;;;3.35;;
72813;SDS011;60945;48.516;-2.768;2022-07-17T01:21:46;7.70;;;3.50;;
72813;SDS011;60945;48.516;-2.768;2022-07-17T01:24:14;5.68;;;3.05;;
72813;SDS011;60945;48.516;-2.768;2022-07-17T01:26:44;7.28;;;3.83;;
72813;SDS011;60945;48.516;-2.768;2022-07-17T01:29:11;7.95;;;3.85;;
72813;SDS011;60945;48.516;-2.768;2022-07-17T01:31:38;5.82;;;3.28;;
72813;SDS011;60945;48.516;-2.768;2022-07-17T01:34:05;8.38;;;3.70;;
72813;SDS011;60945;48.516;-2.768;2022-07-17T01:36:33;8.43;;;3.60;;
72813;SDS011;60945;48.516;-2.768;2022-07-17T01:38:59;8.43;;;3.70;;
72813;SDS011;60945;48.516;-2.768;2022-07-17T01:41:25;14.23;;;4.00;;
72813;SDS011;60945;48.516;-2.768;2022-07-17T01:43:51;7.95;;;3.55;;
72813;SDS011;60945;48.516;-2.768;2022-07-17T01:46:16;8.68;;;3.92;;
72813;SDS011;60945;48.516;-2.768;2022-07-17T01:48:42;7.30;;;3.90;;
72813;SDS011;60945;48.516;-2.768;2022-07-17T01:51:08;5.55;;;3.65;;
72813;SDS011;60945;48.516;-2.768;2022-07-17T01:53:33;10.30;;;3.63;;
72813;SDS011;60945;48.516;-2.768;2022-07-17T01:55:59;5.82;;;3.50;;
72813;SDS011;60945;48.516;-2.768;2022-07-17T01:58:25;6.50;;;3.60;;
72813;SDS011;60945;48.516;-2.768;2022-07-17T02:00:51;7.53;;;4.05;;
72813;SDS011;60945;48.516;-2.768;2022-07-17T02:03:17;7.35;;;4.43;;
72813;SDS011;60945;48.516;-2.768;2022-07-17T02:05:43;6.55;;;3.55;;
72813;SDS011;60945;48.516;-2.768;2022-07-17T02:08:09;4.68;;;3.92;;
72813;SDS011;60945;48.516;-2.768;2022-07-17T02:10:35;5.45;;;3.50;;
72813;SDS011;60945;48.516;-2.768;2022-07-17T02:13:00;8.02;;;4.25;;
72813;SDS011;60945;48.516;-2.768;2022-07-17T02:15:26;6.45;;;3.97;;
72813;SDS011;60945;48.516;-2.768;2022-07-17T02:17:52;8.60;;;3.50;;
72813;SDS011;60945;48.516;-2.768;2022-07-17T02:20:18;8.07;;;4.20;;
72813;SDS011;60945;48.516;-2.768;2022-07-17T02:22:43;6.28;;;3.58;;
72813;SDS011;60945;48.516;-2.768;2022-07-17T02:25:10;10.18;;;4.40;;
72813;SDS011;60945;48.516;-2.768;2022-07-17T02:27:37;8.02;;;3.33;;
72813;SDS011;60945;48.516;-2.768;2022-07-17T02:30:08;7.53;;;4.30;;
72813;SDS011;60945;48.516;-2.768;2022-07-17T02:32:38;6.50;;;3.70;;
72813;SDS011;60945;48.516;-2.768;2022-07-17T02:35:04;6.20;;;4.28;;
72813;SDS011;60945;48.516;-2.768;2022-07-17T02:37:31;6.50;;;4.40;;
72813;SDS011;60945;48.516;-2.768;2022-07-17T02:39:57;5.75;;;4.28;;
72813;SDS011;60945;48.516;-2.768;2022-07-17T02:42:25;5.97;;;3.70;;
72813;SDS011;60945;48.516;-2.768;2022-07-17T02:44:53;5.90;;;4.22;;
72813;SDS011;60945;48.516;-2.768;2022-07-17T02:47:27;8.45;;;4.25;;
72813;SDS011;60945;48.516;-2.768;2022-07-17T02:49:55;6.85;;;3.92;;
72813;SDS011;60945;48.516;-2.768;2022-07-17T02:52:21;7.55;;;3.75;;
72813;SDS011;60945;48.516;-2.768;2022-07-17T02:54:47;8.27;;;4.20;;
72813;SDS011;60945;48.516;-2.768;2022-07-17T02:57:13;7.10;;;4.68;;
72813;SDS011;60945;48.516;-2.768;2022-07-17T02:59:38;7.88;;;3.80;;
72813;SDS011;60945;48.516;-2.768;2022-07-17T03:02:04;7.75;;;4.80;;
72813;SDS011;60945;48.516;-2.768;2022-07-17T03:04:30;6.18;;;4.05;;
72813;SDS011;60945;48.516;-2.768;2022-07-17T03:06:56;8.38;;;4.43;;
72813;SDS011;60945;48.516;-2.768;2022-07-17T03:09:22;6.60;;;3.90;;
72813;SDS011;60945;48.516;-2.768;2022-07-17T03:11:47;13.15;;;4.38;;
72813;SDS011;60945;48.516;-2.768;2022-07-17T03:14:13;8.55;;;4.28;;
72813;SDS011;60945;48.516;-2.768;2022-07-17T03:16:39;6.18;;;4.85;;
72813;SDS011;60945;48.516;-2.768;2022-07-17T03:19:04;7.30;;;3.88;;
72813;SDS011;60945;48.516;-2.768;2022-07-17T03:21:30;7.00;;;4.30;;
72813;SDS011;60945;48.516;-2.768;2022-07-17T03:23:55;9.10;;;4.53;;
72813;SDS011;60945;48.516;-2.768;2022-07-17T03:26:21;7.20;;;3.78;;
72813;SDS011;60945;48.516;-2.768;2022-07-17T03:28:47;7.93;;;4.25;;
72813;SDS011;60945;48.516;-2.768;2022-07-17T03:31:12;6.68;;;4.50;;
72813;SDS011;60945;48.516;-2.768;2022-07-17T03:33:38;6.60;;;4.43;;
72813;SDS011;60945;48.516;-2.768;2022-07-17T03:36:04;8.88;;;4.32;;
72813;SDS011;60945;48.516;-2.768;2022-07-17T03:38:31;9.82;;;4.30;;
72813;SDS011;60945;48.516;-2.768;2022-07-17T03:40:57;5.65;;;4.05;;
72813;SDS011;60945;48.516;-2.768;2022-07-17T03:43:23;9.93;;;4.50;;
72813;SDS011;60945;48.516;-2.768;2022-07-17T03:45:48;6.53;;;4.10;;
72813;SDS011;60945;48.516;-2.768;2022-07-17T03:48:14;10.57;;;4.97;;
72813;SDS011;60945;48.516;-2.768;2022-07-17T03:50:40;8.68;;;4.50;;
72813;SDS011;60945;48.516;-2.768;2022-07-17T03:53:06;11.10;;;4.90;;
72813;SDS011;60945;48.516;-2.768;2022-07-17T03:55:31;8.82;;;4.93;;
72813;SDS011;60945;48.516;-2.768;2022-07-17T03:57:57;8.10;;;4.70;;
72813;SDS011;60945;48.516;-2.768;2022-07-17T04:00:23;7.15;;;4.00;;
72813;SDS011;60945;48.516;-2.768;2022-07-17T04:02:49;7.28;;;3.78;;
72813;SDS011;60945;48.516;-2.768;2022-07-17T04:05:14;7.88;;;4.63;;
72813;SDS011;60945;48.516;-2.768;2022-07-17T04:07:41;5.63;;;3.85;;
72813;SDS011;60945;48.516;-2.768;2022-07-17T04:10:08;6.55;;;3.80;;
72813;SDS011;60945;48.516;-2.768;2022-07-17T04:12:36;6.57;;;3.70;;
72813;SDS011;60945;48.516;-2.768;2022-07-17T04:15:03;4.40;;;3.20;;
72813;SDS011;60945;48.516;-2.768;2022-07-17T04:17:30;7.43;;;4.22;;
72813;SDS011;60945;48.516;-2.768;2022-07-17T04:19:55;7.15;;;4.03;;
72813;SDS011;60945;48.516;-2.768;2022-07-17T04:22:21;7.68;;;3.75;;
72813;SDS011;60945;48.516;-2.768;2022-07-17T04:24:47;6.93;;;4.70;;
72813;SDS011;60945;48.516;-2.768;2022-07-17T04:27:13;7.13;;;4.22;;
72813;SDS011;60945;48.516;-2.768;2022-07-17T04:29:39;4.93;;;3.28;;
72813;SDS011;60945;48.516;-2.768;2022-07-17T04:32:05;10.65;;;3.75;;
72813;SDS011;60945;48.516;-2.768;2022-07-17T04:34:31;6.55;;;3.83;;
72813;SDS011;60945;48.516;-2.768;2022-07-17T04:36:58;11.82;;;4.00;;
72813;SDS011;60945;48.516;-2.768;2022-07-17T04:39:24;9.85;;;3.47;;
72813;SDS011;60945;48.516;-2.768;2022-07-17T04:41:50;7.65;;;4.07;;
72813;SDS011;60945;48.516;-2.768;2022-07-17T04:44:16;5.30;;;3.40;;
72813;SDS011;60945;48.516;-2.768;2022-07-17T04:46:41;4.20;;;3.45;;
72813;SDS011;60945;48.516;-2.768;2022-07-17T04:49:07;7.47;;;3.33;;
72813;SDS011;60945;48.516;-2.768;2022-07-17T04:51:33;7.80;;;4.03;;
72813;SDS011;60945;48.516;-2.768;2022-07-17T04:53:59;8.35;;;3.45;;
72813;SDS011;60945;48.516;-2.768;2022-07-17T04:56:24;8.70;;;4.15;;
72813;SDS011;60945;48.516;-2.768;2022-07-17T04:58:50;8.30;;;3.60;;
72813;SDS011;60945;48.516;-2.768;2022-07-17T05:01:16;5.35;;;3.40;;
72813;SDS011;60945;48.516;-2.768;2022-07-17T05:03:42;4.13;;;3.40;;
72813;SDS011;60945;48.516;-2.768;2022-07-17T05:06:07;4.95;;;3.35;;
72813;SDS011;60945;48.516;-2.768;2022-07-17T05:08:34;5.65;;;3.15;;
72813;SDS011;60945;48.516;-2.768;2022-07-17T05:11:00;8.38;;;3.42;;
72813;SDS011;60945;48.516;-2.768;2022-07-17T05:13:26;6.63;;;3.75;;
72813;SDS011;60945;48.516;-2.768;2022-07-17T05:15:51;5.43;;;3.42;;
72813;SDS011;60945;48.516;-2.768;2022-07-17T05:18:17;6.00;;;3.22;;
72813;SDS011;60945;48.516;-2.768;2022-07-17T05:20:43;5.43;;;2.83;;
72813;SDS011;60945;48.516;-2.768;2022-07-17T05:23:08;4.28;;;2.85;;
72813;SDS011;60945;48.516;-2.768;2022-07-17T05:25:34;3.28;;;2.65;;
72813;SDS011;60945;48.516;-2.768;2022-07-17T05:28:00;4.88;;;2.92;;
72813;SDS011;60945;48.516;-2.768;2022-07-17T05:30:26;5.78;;;2.92;;
72813;SDS011;60945;48.516;-2.768;2022-07-17T05:32:52;4.88;;;2.97;;
72813;SDS011;60945;48.516;-2.768;2022-07-17T05:35:18;6.13;;;3.05;;
72813;SDS011;60945;48.516;-2.768;2022-07-17T05:37:43;6.63;;;3.13;;
72813;SDS011;60945;48.516;-2.768;2022-07-17T05:40:09;4.97;;;3.15;;
72813;SDS011;60945;48.516;-2.768;2022-07-17T05:42:35;5.88;;;3.15;;
72813;SDS011;60945;48.516;-2.768;2022-07-17T05:45:00;3.92;;;3.00;;
72813;SDS011;60945;48.516;-2.768;2022-07-17T05:47:26;4.00;;;2.80;;
72813;SDS011;60945;48.516;-2.768;2022-07-17T05:49:52;4.72;;;2.90;;
72813;SDS011;60945;48.516;-2.768;2022-07-17T05:52:17;6.60;;;2.78;;
72813;SDS011;60945;48.516;-2.768;2022-07-17T05:54:43;3.75;;;2.85;;
72813;SDS011;60945;48.516;-2.768;2022-07-17T05:57:09;6.32;;;2.65;;
72813;SDS011;60945;48.516;-2.768;2022-07-17T05:59:34;5.18;;;2.58;;
72813;SDS011;60945;48.516;-2.768;2022-07-17T06:02:00;5.38;;;2.95;;
72813;SDS011;60945;48.516;-2.768;2022-07-17T06:04:26;4.13;;;2.63;;
72813;SDS011;60945;48.516;-2.768;2022-07-17T06:06:51;20.25;;;3.42;;
72813;SDS011;60945;48.516;-2.768;2022-07-17T06:09:17;7.45;;;2.88;;
72813;SDS011;60945;48.516;-2.768;2022-07-17T06:11:43;5.60;;;2.92;;
72813;SDS011;60945;48.516;-2.768;2022-07-17T06:14:09;6.63;;;2.78;;
72813;SDS011;60945;48.516;-2.768;2022-07-17T06:16:34;4.35;;;2.67;;
72813;SDS011;60945;48.516;-2.768;2022-07-17T06:19:00;5.72;;;3.00;;
72813;SDS011;60945;48.516;-2.768;2022-07-17T06:21:26;5.00;;;2.90;;
72813;SDS011;60945;48.516;-2.768;2022-07-17T06:23:51;4.55;;;2.72;;
72813;SDS011;60945;48.516;-2.768;2022-07-17T06:26:17;4.75;;;2.58;;
72813;SDS011;60945;48.516;-2.768;2022-07-17T06:28:43;5.28;;;2.63;;
72813;SDS011;60945;48.516;-2.768;2022-07-17T06:31:08;3.45;;;2.65;;
72813;SDS011;60945;48.516;-2.768;2022-07-17T06:33:34;6.50;;;2.60;;
72813;SDS011;60945;48.516;-2.768;2022-07-17T06:36:00;5.18;;;2.65;;
72813;SDS011;60945;48.516;-2.768;2022-07-17T06:38:25;4.68;;;2.50;;
72813;SDS011;60945;48.516;-2.768;2022-07-17T06:40:51;6.47;;;3.13;;
72813;SDS011;60945;48.516;-2.768;2022-07-17T06:43:17;3.63;;;2.42;;
72813;SDS011;60945;48.516;-2.768;2022-07-17T06:45:42;4.85;;;2.28;;
72813;SDS011;60945;48.516;-2.768;2022-07-17T06:48:08;6.18;;;3.00;;
72813;SDS011;60945;48.516;-2.768;2022-07-17T06:50:34;3.70;;;2.47;;
72813;SDS011;60945;48.516;-2.768;2022-07-17T06:53:00;3.78;;;2.75;;
72813;SDS011;60945;48.516;-2.768;2022-07-17T06:55:25;5.65;;;2.60;;
72813;SDS011;60945;48.516;-2.768;2022-07-17T06:57:51;5.28;;;2.72;;
72813;SDS011;60945;48.516;-2.768;2022-07-17T07:00:17;4.32;;;2.83;;
72813;SDS011;60945;48.516;-2.768;2022-07-17T07:02:43;5.40;;;2.40;;
72813;SDS011;60945;48.516;-2.768;2022-07-17T07:05:09;5.82;;;2.88;;
72813;SDS011;60945;48.516;-2.768;2022-07-17T07:07:35;5.35;;;2.40;;
72813;SDS011;60945;48.516;-2.768;2022-07-17T07:10:04;3.25;;;2.20;;
72813;SDS011;60945;48.516;-2.768;2022-07-17T07:12:30;6.15;;;2.67;;
72813;SDS011;60945;48.516;-2.768;2022-07-17T07:14:56;3.75;;;2.35;;
72813;SDS011;60945;48.516;-2.768;2022-07-17T07:17:21;6.10;;;2.70;;
72813;SDS011;60945;48.516;-2.768;2022-07-17T07:19:47;3.80;;;2.50;;
72813;SDS011;60945;48.516;-2.768;2022-07-17T07:22:13;3.88;;;2.28;;
72813;SDS011;60945;48.516;-2.768;2022-07-17T07:24:38;2.70;;;1.80;;
72813;SDS011;60945;48.516;-2.768;2022-07-17T07:27:04;4.82;;;2.45;;
72813;SDS011;60945;48.516;-2.768;2022-07-17T07:29:30;4.78;;;2.28;;
72813;SDS011;60945;48.516;-2.768;2022-07-17T07:31:55;6.60;;;2.05;;
72813;SDS011;60945;48.516;-2.768;2022-07-17T07:34:21;4.03;;;1.80;;
72813;SDS011;60945;48.516;-2.768;2022-07-17T07:36:46;3.28;;;2.13;;
72813;SDS011;60945;48.516;-2.768;2022-07-17T07:39:12;3.22;;;2.08;;
72813;SDS011;60945;48.516;-2.768;2022-07-17T07:41:37;9.68;;;2.00;;
72813;SDS011;60945;48.516;-2.768;2022-07-17T07:44:03;4.88;;;2.10;;
72813;SDS011;60945;48.516;-2.768;2022-07-17T07:46:29;6.22;;;2.15;;
72813;SDS011;60945;48.516;-2.768;2022-07-17T07:48:55;4.72;;;2.17;;
72813;SDS011;60945;48.516;-2.768;2022-07-17T07:51:20;7.22;;;2.13;;
72813;SDS011;60945;48.516;-2.768;2022-07-17T07:53:46;6.03;;;1.98;;
72813;SDS011;60945;48.516;-2.768;2022-07-17T07:56:12;4.47;;;2.28;;
72813;SDS011;60945;48.516;-2.768;2022-07-17T07:58:37;3.88;;;2.33;;
72813;SDS011;60945;48.516;-2.768;2022-07-17T08:01:03;3.75;;;2.30;;
72813;SDS011;60945;48.516;-2.768;2022-07-17T08:03:29;2.40;;;2.10;;
72813;SDS011;60945;48.516;-2.768;2022-07-17T08:05:55;7.10;;;2.40;;
72813;SDS011;60945;48.516;-2.768;2022-07-17T08:08:20;2.55;;;2.00;;
72813;SDS011;60945;48.516;-2.768;2022-07-17T08:10:46;3.75;;;1.90;;
72813;SDS011;60945;48.516;-2.768;2022-07-17T08:13:12;4.07;;;2.10;;
72813;SDS011;60945;48.516;-2.768;2022-07-17T08:15:37;4.00;;;1.83;;
72813;SDS011;60945;48.516;-2.768;2022-07-17T08:18:03;4.82;;;1.92;;
72813;SDS011;60945;48.516;-2.768;2022-07-17T08:20:28;5.60;;;1.98;;
72813;SDS011;60945;48.516;-2.768;2022-07-17T08:22:54;5.65;;;2.30;;
72813;SDS011;60945;48.516;-2.768;2022-07-17T08:25:20;3.30;;;2.00;;
72813;SDS011;60945;48.516;-2.768;2022-07-17T08:27:46;5.20;;;2.08;;
72813;SDS011;60945;48.516;-2.768;2022-07-17T08:30:12;4.93;;;1.90;;
72813;SDS011;60945;48.516;-2.768;2022-07-17T08:32:39;2.85;;;1.95;;
72813;SDS011;60945;48.516;-2.768;2022-07-17T08:35:04;3.40;;;1.73;;
72813;SDS011;60945;48.516;-2.768;2022-07-17T08:37:30;5.35;;;1.88;;
72813;SDS011;60945;48.516;-2.768;2022-07-17T08:40:07;3.60;;;1.95;;
72813;SDS011;60945;48.516;-2.768;2022-07-17T08:42:33;2.95;;;1.90;;
72813;SDS011;60945;48.516;-2.768;2022-07-17T08:45:07;6.50;;;2.35;;
72813;SDS011;60945;48.516;-2.768;2022-07-17T08:47:34;6.38;;;2.17;;
72813;SDS011;60945;48.516;-2.768;2022-07-17T08:50:00;4.63;;;1.85;;
72813;SDS011;60945;48.516;-2.768;2022-07-17T08:52:29;4.93;;;1.73;;
72813;SDS011;60945;48.516;-2.768;2022-07-17T08:54:55;3.15;;;1.95;;
72813;SDS011;60945;48.516;-2.768;2022-07-17T08:57:22;1.73;;;1.50;;
72813;SDS011;60945;48.516;-2.768;2022-07-17T08:59:47;3.75;;;1.90;;
72813;SDS011;60945;48.516;-2.768;2022-07-17T09:02:13;5.97;;;1.80;;
72813;SDS011;60945;48.516;-2.768;2022-07-17T09:04:39;6.72;;;1.95;;
72813;SDS011;60945;48.516;-2.768;2022-07-17T09:07:05;4.03;;;1.95;;
72813;SDS011;60945;48.516;-2.768;2022-07-17T09:09:31;3.83;;;1.90;;
72813;SDS011;60945;48.516;-2.768;2022-07-17T09:12:01;3.85;;;1.80;;
72813;SDS011;60945;48.516;-2.768;2022-07-17T09:14:36;3.22;;;1.90;;
72813;SDS011;60945;48.516;-2.768;2022-07-17T09:17:04;4.47;;;2.03;;
72813;SDS011;60945;48.516;-2.768;2022-07-17T09:19:32;6.07;;;1.92;;
72813;SDS011;60945;48.516;-2.768;2022-07-17T09:22:12;3.05;;;2.00;;
72813;SDS011;60945;48.516;-2.768;2022-07-17T09:24:48;4.40;;;1.88;;
72813;SDS011;60945;48.516;-2.768;2022-07-17T09:27:30;2.30;;;1.90;;
72813;SDS011;60945;48.516;-2.768;2022-07-17T09:30:02;4.53;;;2.25;;
72813;SDS011;60945;48.516;-2.768;2022-07-17T09:32:31;7.45;;;2.65;;
72813;SDS011;60945;48.516;-2.768;2022-07-17T09:37:26;3.13;;;2.22;;
72813;SDS011;60945;48.516;-2.768;2022-07-17T09:39:53;5.20;;;2.00;;
72813;SDS011;60945;48.516;-2.768;2022-07-17T09:44:57;5.20;;;2.00;;
72813;SDS011;60945;48.516;-2.768;2022-07-17T09:47:24;5.68;;;1.85;;
72813;SDS011;60945;48.516;-2.768;2022-07-17T09:49:52;5.70;;;2.20;;
72813;SDS011;60945;48.516;-2.768;2022-07-17T09:52:19;4.63;;;2.00;;
72813;SDS011;60945;48.516;-2.768;2022-07-17T09:54:46;5.95;;;1.83;;
72813;SDS011;60945;48.516;-2.768;2022-07-17T09:57:13;8.27;;;2.20;;
72813;SDS011;60945;48.516;-2.768;2022-07-17T09:59:39;3.85;;;1.80;;
72813;SDS011;60945;48.516;-2.768;2022-07-17T10:02:06;2.20;;;1.80;;
72813;SDS011;60945;48.516;-2.768;2022-07-17T10:04:32;3.55;;;2.00;;
72813;SDS011;60945;48.516;-2.768;2022-07-17T10:06:59;3.78;;;1.83;;
72813;SDS011;60945;48.516;-2.768;2022-07-17T10:09:24;2.75;;;1.85;;
72813;SDS011;60945;48.516;-2.768;2022-07-17T10:11:50;3.97;;;1.70;;
72813;SDS011;60945;48.516;-2.768;2022-07-17T10:14:17;6.18;;;2.03;;
72813;SDS011;60945;48.516;-2.768;2022-07-17T10:16:44;6.72;;;1.65;;
72813;SDS011;60945;48.516;-2.768;2022-07-17T10:21:52;3.63;;;1.90;;
72813;SDS011;60945;48.516;-2.768;2022-07-17T10:24:20;4.60;;;1.90;;
72813;SDS011;60945;48.516;-2.768;2022-07-17T10:26:45;3.92;;;1.60;;
72813;SDS011;60945;48.516;-2.768;2022-07-17T10:32:06;2.75;;;1.60;;
72813;SDS011;60945;48.516;-2.768;2022-07-17T10:34:37;1.85;;;1.40;;
72813;SDS011;60945;48.516;-2.768;2022-07-17T10:37:25;2.20;;;1.65;;
72813;SDS011;60945;48.516;-2.768;2022-07-17T10:40:03;7.25;;;2.05;;
72813;SDS011;60945;48.516;-2.768;2022-07-17T10:42:39;6.28;;;1.67;;
72813;SDS011;60945;48.516;-2.768;2022-07-17T10:48:20;4.60;;;1.85;;
72813;SDS011;60945;48.516;-2.768;2022-07-17T10:53:16;3.38;;;1.30;;
72813;SDS011;60945;48.516;-2.768;2022-07-17T10:55:44;2.38;;;1.70;;
72813;SDS011;60945;48.516;-2.768;2022-07-17T10:58:44;3.33;;;1.52;;
72813;SDS011;60945;48.516;-2.768;2022-07-17T11:01:13;5.07;;;1.80;;
72813;SDS011;60945;48.516;-2.768;2022-07-17T11:06:11;1.70;;;1.50;;
72813;SDS011;60945;48.516;-2.768;2022-07-17T11:08:41;1.90;;;1.55;;
72813;SDS011;60945;48.516;-2.768;2022-07-17T11:11:11;2.10;;;1.23;;
72813;SDS011;60945;48.516;-2.768;2022-07-17T11:13:37;2.45;;;1.52;;
72813;SDS011;60945;48.516;-2.768;2022-07-17T11:16:03;5.18;;;1.40;;
72813;SDS011;60945;48.516;-2.768;2022-07-17T11:18:29;5.20;;;2.13;;
72813;SDS011;60945;48.516;-2.768;2022-07-17T11:20:59;1.70;;;1.23;;
72813;SDS011;60945;48.516;-2.768;2022-07-17T11:23:26;2.17;;;1.60;;
72813;SDS011;60945;48.516;-2.768;2022-07-17T11:28:39;4.43;;;1.25;;
72813;SDS011;60945;48.516;-2.768;2022-07-17T11:33:55;3.15;;;2.00;;
72813;SDS011;60945;48.516;-2.768;2022-07-17T11:36:26;1.95;;;1.20;;
72813;SDS011;60945;48.516;-2.768;2022-07-17T11:38:55;5.32;;;1.50;;
72813;SDS011;60945;48.516;-2.768;2022-07-17T11:41:30;3.72;;;1.60;;
72813;SDS011;60945;48.516;-2.768;2022-07-17T11:43:57;3.00;;;1.52;;
72813;SDS011;60945;48.516;-2.768;2022-07-17T11:46:22;1.73;;;1.40;;
72813;SDS011;60945;48.516;-2.768;2022-07-17T11:48:48;1.60;;;1.50;;
72813;SDS011;60945;48.516;-2.768;2022-07-17T11:51:14;1.07;;;1.03;;
72813;SDS011;60945;48.516;-2.768;2022-07-17T11:53:41;3.78;;;1.30;;
72813;SDS011;60945;48.516;-2.768;2022-07-17T11:56:07;2.77;;;1.53;;
72813;SDS011;60945;48.516;-2.768;2022-07-17T11:58:41;1.40;;;1.27;;
72813;SDS011;60945;48.516;-2.768;2022-07-17T12:01:08;2.58;;;1.30;;
72813;SDS011;60945;48.516;-2.768;2022-07-17T12:03:34;1.67;;;1.50;;
72813;SDS011;60945;48.516;-2.768;2022-07-17T12:05:59;4.73;;;1.63;;
72813;SDS011;60945;48.516;-2.768;2022-07-17T12:08:25;3.72;;;1.23;;
72813;SDS011;60945;48.516;-2.768;2022-07-17T12:11:05;3.08;;;1.42;;
72813;SDS011;60945;48.516;-2.768;2022-07-17T12:13:39;2.50;;;1.42;;
72813;SDS011;60945;48.516;-2.768;2022-07-17T12:21:23;3.70;;;1.48;;
72813;SDS011;60945;48.516;-2.768;2022-07-17T12:26:23;2.28;;;1.23;;
72813;SDS011;60945;48.516;-2.768;2022-07-17T12:28:48;2.80;;;1.40;;
72813;SDS011;60945;48.516;-2.768;2022-07-17T12:31:14;2.17;;;1.48;;
72813;SDS011;60945;48.516;-2.768;2022-07-17T12:33:40;3.30;;;1.52;;
72813;SDS011;60945;48.516;-2.768;2022-07-17T12:36:06;2.80;;;1.40;;
72813;SDS011;60945;48.516;-2.768;2022-07-17T12:38:32;1.52;;;1.42;;
72813;SDS011;60945;48.516;-2.768;2022-07-17T12:40:58;2.78;;;1.60;;
72813;SDS011;60945;48.516;-2.768;2022-07-17T12:43:24;3.75;;;1.80;;
72813;SDS011;60945;48.516;-2.768;2022-07-17T12:45:51;1.70;;;1.60;;
72813;SDS011;60945;48.516;-2.768;2022-07-17T12:48:17;3.15;;;1.55;;
72813;SDS011;60945;48.516;-2.768;2022-07-17T12:50:42;3.65;;;1.70;;
72813;SDS011;60945;48.516;-2.768;2022-07-17T12:53:10;2.10;;;1.90;;
72813;SDS011;60945;48.516;-2.768;2022-07-17T12:55:35;3.20;;;1.88;;
72813;SDS011;60945;48.516;-2.768;2022-07-17T12:58:04;2.22;;;1.80;;
72813;SDS011;60945;48.516;-2.768;2022-07-17T13:00:30;2.65;;;1.80;;
72813;SDS011;60945;48.516;-2.768;2022-07-17T13:02:55;5.40;;;2.05;;
72813;SDS011;60945;48.516;-2.768;2022-07-17T13:05:21;6.63;;;2.17;;
72813;SDS011;60945;48.516;-2.768;2022-07-17T13:07:48;3.72;;;1.75;;
72813;SDS011;60945;48.516;-2.768;2022-07-17T13:10:14;6.20;;;2.20;;
72813;SDS011;60945;48.516;-2.768;2022-07-17T13:12:40;2.85;;;2.10;;
72813;SDS011;60945;48.516;-2.768;2022-07-17T13:15:08;2.55;;;2.35;;
72813;SDS011;60945;48.516;-2.768;2022-07-17T13:17:35;3.25;;;2.50;;
72813;SDS011;60945;48.516;-2.768;2022-07-17T13:20:01;2.92;;;2.63;;
72813;SDS011;60945;48.516;-2.768;2022-07-17T13:22:29;2.83;;;2.63;;
72813;SDS011;60945;48.516;-2.768;2022-07-17T13:24:55;6.13;;;2.72;;
72813;SDS011;60945;48.516;-2.768;2022-07-17T13:27:20;3.05;;;2.67;;
72813;SDS011;60945;48.516;-2.768;2022-07-17T13:29:46;3.08;;;2.80;;
72813;SDS011;60945;48.516;-2.768;2022-07-17T13:32:11;3.05;;;2.80;;
72813;SDS011;60945;48.516;-2.768;2022-07-17T13:34:37;2.95;;;2.78;;
72813;SDS011;60945;48.516;-2.768;2022-07-17T13:37:03;3.38;;;3.10;;
72813;SDS011;60945;48.516;-2.768;2022-07-17T13:39:29;2.80;;;2.70;;
72813;SDS011;60945;48.516;-2.768;2022-07-17T13:41:54;3.38;;;3.00;;
72813;SDS011;60945;48.516;-2.768;2022-07-17T13:44:20;3.53;;;2.75;;
72813;SDS011;60945;48.516;-2.768;2022-07-17T13:46:45;3.03;;;2.60;;
72813;SDS011;60945;48.516;-2.768;2022-07-17T13:49:11;2.60;;;2.40;;
72813;SDS011;60945;48.516;-2.768;2022-07-17T13:51:37;3.08;;;2.40;;
72813;SDS011;60945;48.516;-2.768;2022-07-17T13:54:04;2.83;;;2.45;;
72813;SDS011;60945;48.516;-2.768;2022-07-17T13:56:31;2.80;;;2.50;;
72813;SDS011;60945;48.516;-2.768;2022-07-17T13:58:57;2.47;;;2.17;;
72813;SDS011;60945;48.516;-2.768;2022-07-17T14:01:23;4.70;;;2.13;;
72813;SDS011;60945;48.516;-2.768;2022-07-17T14:03:49;2.42;;;2.20;;
72813;SDS011;60945;48.516;-2.768;2022-07-17T14:06:15;2.40;;;2.20;;
72813;SDS011;60945;48.516;-2.768;2022-07-17T14:08:40;2.90;;;2.47;;
72813;SDS011;60945;48.516;-2.768;2022-07-17T14:11:06;3.50;;;2.35;;
72813;SDS011;60945;48.516;-2.768;2022-07-17T14:13:34;2.63;;;2.42;;
72813;SDS011;60945;48.516;-2.768;2022-07-17T14:16:00;2.70;;;2.50;;
72813;SDS011;60945;48.516;-2.768;2022-07-17T14:18:25;2.60;;;2.50;;
72813;SDS011;60945;48.516;-2.768;2022-07-17T14:20:51;2.70;;;2.50;;
72813;SDS011;60945;48.516;-2.768;2022-07-17T14:23:16;5.13;;;2.40;;
72813;SDS011;60945;48.516;-2.768;2022-07-17T14:25:42;2.35;;;2.25;;
72813;SDS011;60945;48.516;-2.768;2022-07-17T14:28:08;2.42;;;2.22;;
72813;SDS011;60945;48.516;-2.768;2022-07-17T14:30:35;3.75;;;2.63;;
72813;SDS011;60945;48.516;-2.768;2022-07-17T14:33:00;3.92;;;2.28;;
72813;SDS011;60945;48.516;-2.768;2022-07-17T14:35:26;2.20;;;2.10;;
72813;SDS011;60945;48.516;-2.768;2022-07-17T14:37:52;3.70;;;2.05;;
72813;SDS011;60945;48.516;-2.768;2022-07-17T14:40:18;5.25;;;2.22;;
72813;SDS011;60945;48.516;-2.768;2022-07-17T14:42:46;2.00;;;1.90;;
72813;SDS011;60945;48.516;-2.768;2022-07-17T14:45:12;3.28;;;1.90;;
72813;SDS011;60945;48.516;-2.768;2022-07-17T14:47:38;2.65;;;1.70;;
72813;SDS011;60945;48.516;-2.768;2022-07-17T14:50:04;5.22;;;1.60;;
72813;SDS011;60945;48.516;-2.768;2022-07-17T14:52:31;4.40;;;1.88;;
72813;SDS011;60945;48.516;-2.768;2022-07-17T14:54:57;1.98;;;1.50;;
72813;SDS011;60945;48.516;-2.768;2022-07-17T14:57:22;1.95;;;1.60;;
72813;SDS011;60945;48.516;-2.768;2022-07-17T14:59:51;3.53;;;1.63;;
72813;SDS011;60945;48.516;-2.768;2022-07-17T15:02:17;2.83;;;1.48;;